createdAt,value
2022-12-12T00:03:20.052Z,446.81
2022-12-12T00:08:27.180Z,447.04
2022-12-12T00:13:34.308Z,447.20
2022-12-12T00:18:41.528Z,447.52
2022-12-12T00:23:48.706Z,447.74
2022-12-12T00:28:55.893Z,447.01
2022-12-12T00:34:03.007Z,447.03
2022-12-12T00:39:15.192Z,446.79
2022-12-12T00:44:17.355Z,447.06
2022-12-12T00:49:24.536Z,447.31
2022-12-12T00:54:31.746Z,447.72
2022-12-12T00:59:38.987Z,447.26
2022-12-12T01:04:46.111Z,446.82
2022-12-12T01:09:53.334Z,447.00
2022-12-12T01:15:00.555Z,446.56
2022-12-12T01:20:07.699Z,445.72
2022-12-12T01:25:15.238Z,445.47
2022-12-12T01:30:22.306Z,445.22
2022-12-12T01:35:29.368Z,445.25
2022-12-12T01:40:36.612Z,444.93
2022-12-12T01:45:43.930Z,444.95
2022-12-12T01:50:50.941Z,445.11
2022-12-12T01:55:58.169Z,444.57
2022-12-12T02:01:05.391Z,443.99
2022-12-12T02:06:12.557Z,443.81
2022-12-12T02:11:19.689Z,443.62
2022-12-12T02:16:27.090Z,442.93
2022-12-12T02:21:33.989Z,442.61
2022-12-12T02:26:41.148Z,442.74
2022-12-12T02:31:48.387Z,442.78
2022-12-12T02:36:55.475Z,442.22
2022-12-12T02:42:02.687Z,442.02
2022-12-12T02:47:09.960Z,441.36
2022-12-12T02:52:17.088Z,441.19
2022-12-12T02:57:24.262Z,440.93
2022-12-12T03:02:31.629Z,441.19
2022-12-12T03:07:38.850Z,440.96
2022-12-12T03:12:46.074Z,441.01
2022-12-12T03:17:53.276Z,440.96
2022-12-12T03:23:00.451Z,440.76
2022-12-12T03:28:07.761Z,441.14
2022-12-12T03:33:15.206Z,441.00
2022-12-12T03:38:22.343Z,440.81
2022-12-12T03:43:29.471Z,441.06
2022-12-12T03:48:36.731Z,440.81
2022-12-12T03:53:43.908Z,440.71
2022-12-12T03:58:51.104Z,440.12
2022-12-12T04:03:58.342Z,440.81
2022-12-12T04:09:05.513Z,440.72
2022-12-12T04:14:12.630Z,440.58
2022-12-12T04:19:19.866Z,440.27
2022-12-12T04:24:27.030Z,439.72
2022-12-12T04:29:34.275Z,439.72
2022-12-12T04:34:41.517Z,439.28
2022-12-12T04:39:48.704Z,438.63
2022-12-12T04:44:55.886Z,438.00
2022-12-12T04:50:03.165Z,437.63
2022-12-12T04:55:10.712Z,436.95
2022-12-12T05:00:17.529Z,436.58
2022-12-12T05:05:24.753Z,436.21
2022-12-12T05:10:31.957Z,436.42
2022-12-12T05:15:44.697Z,436.02
2022-12-12T05:20:46.414Z,435.54
2022-12-12T05:25:53.565Z,435.24
2022-12-12T05:31:00.803Z,435.37
2022-12-12T05:36:08.141Z,434.99
2022-12-12T05:41:15.319Z,435.02
2022-12-12T05:46:22.548Z,435.19
2022-12-12T05:51:29.761Z,434.61
2022-12-12T05:56:36.835Z,434.32
2022-12-12T06:01:43.990Z,433.67
2022-12-12T06:06:51.170Z,433.90
2022-12-12T06:11:58.346Z,433.68
2022-12-12T06:17:05.508Z,433.57
2022-12-12T06:22:12.732Z,433.23
2022-12-12T06:27:19.853Z,433.01
2022-12-12T06:32:27.018Z,432.90
2022-12-12T06:37:34.248Z,432.51
2022-12-12T06:42:47.711Z,432.71
2022-12-12T06:47:48.735Z,432.84
2022-12-12T06:52:55.934Z,432.28
2022-12-12T06:58:03.151Z,431.15
2022-12-12T07:03:10.420Z,430.94
2022-12-12T07:08:17.705Z,430.66
2022-12-12T07:13:24.757Z,430.51
2022-12-12T07:18:31.933Z,429.64
2022-12-12T07:23:39.129Z,429.15
2022-12-12T07:28:46.338Z,429.63
2022-12-12T07:33:53.569Z,429.11
2022-12-12T07:39:00.922Z,428.44
2022-12-12T07:44:08.051Z,428.71
2022-12-12T07:49:15.284Z,427.82
2022-12-12T07:54:22.543Z,427.74
2022-12-12T07:59:29.722Z,428.17
2022-12-12T08:04:37.015Z,427.37
2022-12-12T08:09:44.231Z,427.00
2022-12-12T08:14:51.413Z,426.33
2022-12-12T08:19:58.667Z,425.21
2022-12-12T08:25:05.963Z,424.87
2022-12-12T08:30:13.129Z,424.36
2022-12-12T08:35:20.341Z,424.61
2022-12-12T08:40:27.639Z,424.40
2022-12-12T08:45:34.819Z,424.71
2022-12-12T08:50:42.026Z,424.44
2022-12-12T08:55:49.287Z,423.65
2022-12-12T09:00:56.404Z,423.40
2022-12-12T09:06:03.603Z,423.65
2022-12-12T09:11:10.865Z,423.49
2022-12-12T09:16:18.188Z,423.44
2022-12-12T09:21:25.288Z,423.07
2022-12-12T09:26:33.023Z,423.01
2022-12-12T09:31:39.761Z,423.38
2022-12-12T09:36:46.929Z,423.53
2022-12-12T09:41:54.132Z,423.63
2022-12-12T09:47:01.309Z,423.07
2022-12-12T09:52:08.531Z,423.98
2022-12-12T09:57:15.747Z,424.27
2022-12-12T10:02:23.020Z,424.83
2022-12-12T10:07:30.137Z,424.88
2022-12-12T10:12:37.426Z,425.52
2022-12-12T10:17:44.559Z,425.76
2022-12-12T10:22:51.765Z,426.23
2022-12-12T10:27:59.032Z,426.31
2022-12-12T10:33:06.228Z,427.35
2022-12-12T10:38:13.446Z,427.62
2022-12-12T10:43:20.714Z,427.33
2022-12-12T10:48:27.915Z,427.44
2022-12-12T10:53:35.135Z,426.75
2022-12-12T10:58:42.404Z,426.84
2022-12-12T11:03:49.601Z,426.02
2022-12-12T11:08:56.802Z,426.89
2022-12-12T11:14:04.428Z,427.72
2022-12-12T11:19:11.624Z,428.20
2022-12-12T11:24:18.840Z,428.62
2022-12-12T11:29:26.046Z,428.73
2022-12-12T11:34:34.122Z,429.00
2022-12-12T11:39:40.464Z,429.02
2022-12-12T11:44:47.734Z,429.11
2022-12-12T11:49:55.438Z,428.82
2022-12-12T11:55:02.648Z,429.51
2022-12-12T12:00:09.931Z,430.29
2022-12-12T12:05:17.153Z,430.79
2022-12-12T12:10:24.797Z,430.65
2022-12-12T12:15:31.624Z,431.25
2022-12-12T12:20:38.820Z,431.80
2022-12-12T12:25:46.110Z,431.22
2022-12-12T12:30:53.394Z,431.03
2022-12-12T12:36:00.493Z,431.30
2022-12-12T12:41:07.699Z,432.03
2022-12-12T12:46:14.993Z,432.57
2022-12-12T12:51:22.102Z,432.94
2022-12-12T12:56:29.312Z,433.27
2022-12-12T13:01:36.645Z,433.43
2022-12-12T13:06:43.713Z,433.36
2022-12-12T13:11:50.917Z,433.14
2022-12-12T13:16:58.165Z,433.56
2022-12-12T13:22:05.344Z,434.55
2022-12-12T13:27:12.530Z,434.99
2022-12-12T13:32:19.762Z,435.59
2022-12-12T13:37:26.954Z,435.83
2022-12-12T13:42:34.195Z,436.13
2022-12-12T13:47:41.480Z,436.20
2022-12-12T13:52:48.684Z,436.66
2022-12-12T13:57:55.868Z,437.28
2022-12-12T14:03:03.160Z,437.51
2022-12-12T14:08:10.350Z,437.59
2022-12-12T14:13:17.506Z,437.38
2022-12-12T14:18:29.777Z,437.64
2022-12-12T14:23:31.906Z,438.05
2022-12-12T14:28:39.120Z,438.13
2022-12-12T14:33:46.428Z,438.30
2022-12-12T14:38:53.542Z,438.54
2022-12-12T14:44:37.120Z,438.72
2022-12-12T14:49:08.170Z,437.62
2022-12-12T14:54:15.329Z,436.52
2022-12-12T14:59:22.548Z,436.00
2022-12-12T15:04:29.773Z,436.64
2022-12-12T15:09:36.998Z,437.68
2022-12-12T15:14:44.260Z,438.31
2022-12-12T15:19:51.532Z,437.90
2022-12-12T15:24:58.710Z,437.87
2022-12-12T15:30:06.085Z,437.55
2022-12-12T15:35:13.205Z,437.79
2022-12-12T15:40:20.392Z,438.04
2022-12-12T15:45:27.583Z,437.21
2022-12-12T15:50:34.812Z,436.76
2022-12-12T15:55:41.966Z,435.82
2022-12-12T16:00:49.235Z,436.63
2022-12-12T16:05:56.497Z,437.05
2022-12-12T16:11:03.686Z,436.82
2022-12-12T16:16:10.948Z,436.34
2022-12-12T16:21:18.159Z,436.55
2022-12-12T16:26:25.325Z,436.76
2022-12-12T16:31:32.597Z,436.67
2022-12-12T16:36:42.180Z,436.27
2022-12-12T16:41:46.927Z,435.71
2022-12-12T16:46:54.131Z,435.31
2022-12-12T16:52:01.362Z,435.21
2022-12-12T16:57:08.553Z,435.33
2022-12-12T17:02:15.760Z,434.38
2022-12-12T17:07:22.967Z,434.43
2022-12-12T17:12:30.486Z,434.39
2022-12-12T17:17:37.850Z,434.69
2022-12-12T17:22:45.402Z,434.96
2022-12-12T17:27:52.707Z,434.66
2022-12-12T17:33:37.192Z,434.47
2022-12-12T17:38:43.147Z,435.43
2022-12-12T17:43:55.305Z,435.82
2022-12-12T17:48:57.479Z,435.60
2022-12-12T17:54:04.703Z,435.59
2022-12-12T17:59:11.891Z,436.09
2022-12-12T18:04:21.850Z,435.75
2022-12-12T18:09:26.330Z,436.22
2022-12-12T18:14:33.439Z,436.51
2022-12-12T18:19:40.925Z,436.79
2022-12-12T18:24:48.525Z,437.05
2022-12-12T18:29:55.825Z,437.25
2022-12-12T18:35:03.207Z,438.02
2022-12-12T18:40:11.105Z,438.55
2022-12-12T18:45:18.547Z,438.97
2022-12-12T18:50:26.151Z,438.81
2022-12-12T18:55:33.788Z,438.70
2022-12-12T19:00:41.177Z,439.19
2022-12-12T19:05:48.792Z,439.59
2022-12-12T19:10:56.429Z,440.25
2022-12-12T19:16:03.916Z,440.23
2022-12-12T19:21:11.531Z,441.05
2022-12-12T19:26:19.272Z,441.18
2022-12-12T19:31:26.867Z,441.22
2022-12-12T19:36:34.481Z,441.80
2022-12-12T19:41:42.063Z,441.95
2022-12-12T19:46:49.644Z,442.68
2022-12-12T19:51:57.122Z,442.34
2022-12-12T19:57:04.632Z,443.14
2022-12-12T20:02:12.037Z,443.24
2022-12-12T20:07:19.550Z,443.15
2022-12-12T20:12:28.152Z,442.72
2022-12-12T20:17:35.700Z,442.75
2022-12-12T20:22:43.419Z,442.63
2022-12-12T20:27:50.761Z,442.79
2022-12-12T20:32:58.249Z,442.54
2022-12-12T20:38:05.571Z,442.86
2022-12-12T20:43:13.122Z,442.86
2022-12-12T20:48:20.379Z,443.03
2022-12-12T20:53:30.898Z,443.16
2022-12-12T20:58:35.315Z,443.83
2022-12-12T21:03:42.696Z,443.84
2022-12-12T21:08:50.012Z,443.86
2022-12-12T21:13:57.433Z,444.29
2022-12-12T21:19:04.724Z,444.77
2022-12-12T21:24:11.916Z,444.83
2022-12-12T21:29:19.155Z,445.00
2022-12-12T21:34:26.345Z,444.84
2022-12-12T21:39:33.487Z,445.14
2022-12-12T21:44:45.507Z,445.41
2022-12-12T21:49:47.839Z,445.74
2022-12-12T21:54:54.992Z,445.99
2022-12-12T22:00:02.211Z,446.58
2022-12-12T22:05:09.363Z,447.00
2022-12-12T22:10:16.570Z,447.17
2022-12-12T22:15:23.764Z,447.04
2022-12-12T22:20:30.962Z,447.70
2022-12-12T22:25:38.222Z,447.01
2022-12-12T22:30:45.456Z,447.62
2022-12-12T22:35:52.607Z,447.96
2022-12-12T22:40:59.833Z,448.44
2022-12-12T22:46:07.142Z,448.80
2022-12-12T22:51:14.207Z,449.40
2022-12-12T22:56:21.422Z,449.62
2022-12-12T23:01:28.679Z,449.29
2022-12-12T23:06:35.855Z,449.90
2022-12-12T23:11:43.018Z,450.42
2022-12-12T23:16:50.281Z,450.99
2022-12-12T23:21:57.411Z,451.15
2022-12-12T23:27:04.652Z,451.61
2022-12-12T23:32:11.892Z,452.52
2022-12-12T23:37:19.111Z,453.33
2022-12-12T23:42:26.259Z,453.30
2022-12-12T23:47:33.462Z,453.78
2022-12-12T23:52:40.682Z,454.07
2022-12-12T23:57:47.891Z,454.64
